Vernon, Iowa
Current Conditions -  °F | °C
As of 8:15 AM on Thursday 23 Oct 2014 (Local Time) from KFFL Reporting Station
Overcast Overcast  
Wind Chill: 50°   Ceiling: 5500
Heat Index: 50°   Visibility: NA
Dew Point: 43°   Wind: 10mph
Humidity: 76%   Direction: 180°S
Pressure: 30.08"   Gusts: NA
Location:  40.7687°N, 92.0788°W
Report Text: KFFL 231315Z AUTO 18009KT SCT042 SCT049 OVC055 10/06 A3008 RMK AO2
Loading
Personal Weather Stations






























Interactive Weather Map
Tropical Storm Tracking
New forecast layout! Learn more

10-Day Weather Forecast

Advertisements
Track Severe Weather on mobile